createdAt,value
2016-11-15T00:00:46.198Z,980.93
2016-11-15T00:01:54.956Z,980.99
2016-11-15T00:03:03.651Z,981.02
2016-11-15T00:04:12.345Z,981.01
2016-11-15T00:05:21.074Z,980.99
2016-11-15T00:06:29.771Z,980.99
2016-11-15T00:07:38.462Z,980.97
2016-11-15T00:08:47.155Z,980.9
2016-11-15T00:09:55.853Z,980.87
2016-11-15T00:11:04.550Z,980.84
2016-11-15T00:12:13.236Z,980.86
2016-11-15T00:13:21.931Z,980.85
2016-11-15T00:14:30.631Z,980.88
2016-11-15T00:15:39.323Z,980.91
2016-11-15T00:16:48.018Z,980.9
2016-11-15T00:17:56.709Z,980.87
2016-11-15T00:19:05.717Z,980.85
2016-11-15T00:20:14.410Z,980.83
2016-11-15T00:21:23.454Z,980.82
2016-11-15T00:22:32.149Z,980.77
2016-11-15T00:23:40.847Z,980.69
2016-11-15T00:24:49.574Z,980.65
2016-11-15T00:25:58.269Z,980.62
2016-11-15T00:27:06.963Z,980.58
2016-11-15T00:28:15.652Z,980.59
2016-11-15T00:29:24.341Z,980.56
2016-11-15T00:30:33.035Z,980.55
2016-11-15T00:31:41.731Z,980.45
2016-11-15T00:32:50.465Z,980.41
2016-11-15T00:33:59.159Z,980.38
2016-11-15T00:35:07.853Z,980.36
2016-11-15T00:36:16.551Z,980.4
2016-11-15T00:37:25.243Z,980.39
2016-11-15T00:38:33.971Z,980.39
2016-11-15T00:39:42.667Z,980.43
2016-11-15T00:40:51.361Z,980.46
2016-11-15T00:42:00.055Z,980.42
2016-11-15T00:43:08.760Z,980.34
2016-11-15T00:44:17.456Z,980.31
2016-11-15T00:45:26.152Z,980.33
2016-11-15T00:46:34.848Z,980.38
2016-11-15T00:47:43.543Z,980.44
2016-11-15T00:48:52.239Z,980.4
2016-11-15T00:50:00.941Z,980.41
2016-11-15T00:51:09.667Z,980.38
2016-11-15T00:52:18.391Z,980.41
2016-11-15T00:53:27.086Z,980.39
2016-11-15T00:54:35.778Z,980.38
2016-11-15T00:55:44.477Z,980.36
2016-11-15T00:56:53.166Z,980.35
2016-11-15T00:58:01.862Z,980.33
2016-11-15T00:59:10.913Z,980.3
2016-11-15T01:00:19.619Z,980.31
2016-11-15T01:01:28.317Z,980.27
2016-11-15T01:02:37.015Z,980.27
2016-11-15T01:03:45.711Z,980.23
2016-11-15T01:04:54.411Z,980.19
2016-11-15T01:06:03.100Z,980.17
2016-11-15T01:07:11.794Z,980.15
2016-11-15T01:08:20.491Z,980.16
2016-11-15T01:09:29.182Z,980.12
2016-11-15T01:10:37.878Z,980.18
2016-11-15T01:11:46.573Z,980.15
2016-11-15T01:12:55.263Z,980.19
2016-11-15T01:14:03.957Z,980.22
2016-11-15T01:15:12.655Z,980.21
2016-11-15T01:16:21.399Z,980.16
2016-11-15T01:17:30.098Z,980.15
2016-11-15T01:18:38.796Z,980.2
2016-11-15T01:19:47.514Z,980.17
2016-11-15T01:20:56.223Z,980.16
2016-11-15T01:22:04.927Z,980.13
2016-11-15T01:23:13.622Z,980.15
2016-11-15T01:24:22.324Z,980.12
2016-11-15T01:25:31.025Z,980.1
2016-11-15T01:26:39.715Z,980.1
2016-11-15T01:27:48.411Z,980.06
2016-11-15T01:28:57.111Z,980.05
2016-11-15T01:30:05.852Z,980.06
2016-11-15T01:31:14.542Z,980.08
2016-11-15T01:32:23.270Z,980.14
2016-11-15T01:33:31.970Z,980.18
2016-11-15T01:34:40.662Z,980.12
2016-11-15T01:35:49.356Z,980.1
2016-11-15T01:36:58.053Z,980.09
2016-11-15T01:38:06.756Z,980.08
2016-11-15T01:39:15.443Z,980.05
2016-11-15T01:40:24.139Z,980.03
2016-11-15T01:41:32.869Z,980.03
2016-11-15T01:42:41.563Z,980.06
2016-11-15T01:43:50.261Z,980.05
2016-11-15T01:44:58.957Z,980.01
2016-11-15T01:46:07.645Z,980.01
2016-11-15T01:47:16.341Z,979.96
2016-11-15T01:48:25.032Z,979.91
2016-11-15T01:49:33.763Z,979.94
2016-11-15T01:50:42.455Z,979.91
2016-11-15T01:51:51.157Z,979.89
2016-11-15T01:52:59.844Z,979.89
2016-11-15T01:54:08.540Z,979.86
2016-11-15T01:55:17.239Z,979.77
2016-11-15T01:56:25.932Z,979.74
2016-11-15T01:57:34.620Z,979.7
2016-11-15T01:58:43.311Z,979.68
2016-11-15T01:59:51.999Z,979.67
2016-11-15T02:01:00.694Z,979.69
2016-11-15T02:02:09.388Z,979.64
2016-11-15T02:03:18.110Z,979.57
2016-11-15T02:04:26.809Z,979.51
2016-11-15T02:05:35.510Z,979.49
2016-11-15T02:06:44.206Z,979.48
2016-11-15T02:07:52.895Z,979.47
2016-11-15T02:09:01.623Z,979.41
2016-11-15T02:10:10.316Z,979.4
2016-11-15T02:11:19.012Z,979.4
2016-11-15T02:12:27.709Z,979.36
2016-11-15T02:13:36.413Z,979.32
2016-11-15T02:14:45.108Z,979.27
2016-11-15T02:15:53.800Z,979.26
2016-11-15T02:17:02.497Z,979.26
2016-11-15T02:18:11.192Z,979.23
2016-11-15T02:19:19.888Z,979.23
2016-11-15T02:20:28.627Z,979.21
2016-11-15T02:21:37.324Z,979.21
2016-11-15T02:22:46.018Z,979.21
2016-11-15T02:23:54.714Z,979.2
2016-11-15T02:25:03.404Z,979.17
2016-11-15T02:26:12.129Z,979.13
2016-11-15T02:27:20.822Z,979.12
2016-11-15T02:28:29.516Z,979.16
2016-11-15T02:29:38.208Z,979.09
2016-11-15T02:30:46.902Z,979.1
2016-11-15T02:31:55.629Z,979.06
2016-11-15T02:33:04.321Z,979.03
2016-11-15T02:34:13.010Z,978.98
2016-11-15T02:35:21.705Z,978.99
2016-11-15T02:36:30.432Z,978.9
2016-11-15T02:37:39.123Z,978.89
2016-11-15T02:38:47.821Z,978.84
2016-11-15T02:39:56.513Z,978.88
2016-11-15T02:41:05.214Z,978.88
2016-11-15T02:42:13.907Z,978.85
2016-11-15T02:43:22.601Z,978.82
2016-11-15T02:44:31.294Z,978.75
2016-11-15T02:45:39.988Z,978.75
2016-11-15T02:46:48.684Z,978.68
2016-11-15T02:47:57.375Z,978.62
2016-11-15T02:49:06.072Z,978.6
2016-11-15T02:50:14.767Z,978.61
2016-11-15T02:51:23.459Z,978.55
2016-11-15T02:52:32.147Z,978.54
2016-11-15T02:53:40.837Z,978.54
2016-11-15T02:54:49.531Z,978.53
2016-11-15T02:55:58.224Z,978.51
2016-11-15T02:57:06.917Z,978.43
2016-11-15T02:58:15.649Z,978.41
2016-11-15T02:59:24.343Z,978.4
2016-11-15T03:00:33.037Z,978.36
2016-11-15T03:01:41.728Z,978.37
2016-11-15T03:02:50.419Z,978.35
2016-11-15T03:03:59.120Z,978.33
2016-11-15T03:05:07.812Z,978.3
2016-11-15T03:06:16.504Z,978.26
2016-11-15T03:07:25.200Z,978.26
2016-11-15T03:08:33.896Z,978.22
2016-11-15T03:09:42.586Z,978.18
2016-11-15T03:10:51.277Z,978.19
2016-11-15T03:11:59.971Z,978.2
2016-11-15T03:13:08.977Z,978.2
2016-11-15T03:14:17.670Z,978.21
2016-11-15T03:15:26.397Z,978.19
2016-11-15T03:16:35.089Z,978.24
2016-11-15T03:17:43.815Z,978.17
2016-11-15T03:18:52.539Z,978.16
2016-11-15T03:20:01.553Z,978.1
2016-11-15T03:21:10.248Z,978.03
2016-11-15T03:22:18.944Z,977.94
2016-11-15T03:23:27.648Z,977.84
2016-11-15T03:24:36.342Z,977.82
2016-11-15T03:25:45.041Z,977.9
2016-11-15T03:26:53.732Z,978.05
2016-11-15T03:28:02.430Z,978.08
2016-11-15T03:29:11.125Z,978.07
2016-11-15T03:30:19.818Z,978.01
2016-11-15T03:31:28.511Z,977.99
2016-11-15T03:32:37.522Z,977.96
2016-11-15T03:33:46.215Z,977.93
2016-11-15T03:34:54.946Z,977.92
2016-11-15T03:36:03.676Z,977.89
2016-11-15T03:37:12.370Z,977.93
2016-11-15T03:38:21.070Z,977.86
2016-11-15T03:39:29.762Z,977.88
2016-11-15T03:40:38.450Z,977.82
2016-11-15T03:41:47.143Z,977.8
2016-11-15T03:42:55.841Z,977.74
2016-11-15T03:44:04.533Z,977.7
2016-11-15T03:45:13.225Z,977.66
2016-11-15T03:46:21.914Z,977.65
2016-11-15T03:47:30.603Z,977.6
2016-11-15T03:48:39.301Z,977.57
2016-11-15T03:49:47.993Z,977.53
2016-11-15T03:50:56.680Z,977.52
2016-11-15T03:52:05.396Z,977.5
2016-11-15T03:53:14.082Z,977.51
2016-11-15T03:54:22.781Z,977.53
2016-11-15T03:55:31.474Z,977.55
2016-11-15T03:56:40.168Z,977.52
2016-11-15T03:57:48.868Z,977.51
2016-11-15T03:58:57.562Z,977.52
2016-11-15T04:00:06.258Z,977.47
2016-11-15T04:01:14.951Z,977.46
2016-11-15T04:02:23.642Z,977.48
2016-11-15T04:03:32.332Z,977.39
2016-11-15T04:04:41.026Z,977.38
2016-11-15T04:05:49.759Z,977.42
2016-11-15T04:06:58.455Z,977.46
2016-11-15T04:08:07.148Z,977.44
2016-11-15T04:09:15.837Z,977.42
2016-11-15T04:10:24.528Z,977.43
2016-11-15T04:11:33.226Z,977.47
2016-11-15T04:12:41.921Z,977.46
2016-11-15T04:13:50.614Z,977.44
2016-11-15T04:14:59.304Z,977.44
2016-11-15T04:16:07.999Z,977.39
2016-11-15T04:17:16.691Z,977.45
2016-11-15T04:18:25.386Z,977.4
2016-11-15T04:19:34.080Z,977.43
2016-11-15T04:20:42.774Z,977.37
2016-11-15T04:21:51.481Z,977.33
2016-11-15T04:23:00.215Z,977.28
2016-11-15T04:24:08.915Z,977.2
2016-11-15T04:25:17.611Z,977.19
2016-11-15T04:26:26.342Z,977.16
2016-11-15T04:27:35.359Z,977.21
2016-11-15T04:28:44.051Z,977.16
2016-11-15T04:29:52.743Z,977.08
2016-11-15T04:31:01.441Z,977.01
2016-11-15T04:32:10.196Z,976.95
2016-11-15T04:33:18.888Z,976.92
2016-11-15T04:34:27.581Z,976.89
2016-11-15T04:35:36.286Z,976.85
2016-11-15T04:36:44.980Z,976.8
2016-11-15T04:37:53.673Z,976.77
2016-11-15T04:39:02.405Z,976.78
2016-11-15T04:40:11.101Z,976.77
2016-11-15T04:41:19.791Z,976.78
2016-11-15T04:42:28.483Z,976.79
2016-11-15T04:43:37.175Z,976.83
2016-11-15T04:44:45.865Z,976.87
2016-11-15T04:45:54.558Z,976.92
2016-11-15T04:47:03.256Z,976.86
2016-11-15T04:48:11.950Z,976.84
2016-11-15T04:49:20.672Z,976.76
2016-11-15T04:50:29.364Z,976.62
2016-11-15T04:51:38.384Z,976.53
2016-11-15T04:52:47.071Z,976.51
2016-11-15T04:53:55.759Z,976.47
2016-11-15T04:55:04.776Z,976.45
2016-11-15T04:56:13.475Z,976.47
2016-11-15T04:57:22.170Z,976.49
2016-11-15T04:58:30.868Z,976.5
2016-11-15T04:59:39.561Z,976.45
2016-11-15T05:00:48.255Z,976.47
2016-11-15T05:01:56.987Z,976.46
2016-11-15T05:03:05.680Z,976.47
2016-11-15T05:04:14.382Z,976.46
2016-11-15T05:05:23.085Z,976.41
2016-11-15T05:06:32.091Z,976.41
2016-11-15T05:07:41.105Z,976.4
2016-11-15T05:08:49.809Z,976.38
2016-11-15T05:09:58.502Z,976.38
2016-11-15T05:11:07.193Z,976.41
2016-11-15T05:12:15.887Z,976.37
2016-11-15T05:13:24.579Z,976.3
2016-11-15T05:14:33.273Z,976.18
2016-11-15T05:15:41.968Z,976.15
2016-11-15T05:16:50.662Z,976.04
2016-11-15T05:17:59.356Z,976.02
2016-11-15T05:19:08.054Z,975.94
2016-11-15T05:20:16.745Z,975.94
2016-11-15T05:21:25.442Z,975.91
2016-11-15T05:22:34.134Z,975.89
2016-11-15T05:23:42.824Z,975.92
2016-11-15T05:24:51.513Z,975.9
2016-11-15T05:26:00.205Z,975.93
2016-11-15T05:27:08.932Z,975.96
2016-11-15T05:28:17.623Z,975.91
2016-11-15T05:29:26.319Z,975.86
2016-11-15T05:30:35.025Z,975.8
2016-11-15T05:31:43.715Z,975.73
2016-11-15T05:32:52.406Z,975.74
2016-11-15T05:34:01.127Z,975.69
2016-11-15T05:35:09.820Z,975.68
2016-11-15T05:36:18.528Z,975.64
2016-11-15T05:37:27.225Z,975.61
2016-11-15T05:38:35.925Z,975.65
2016-11-15T05:39:44.623Z,975.66
2016-11-15T05:40:53.317Z,975.54
2016-11-15T05:42:02.012Z,975.46
2016-11-15T05:43:10.703Z,975.47
2016-11-15T05:44:19.710Z,975.52
2016-11-15T05:45:28.404Z,975.56
2016-11-15T05:46:37.093Z,975.54
2016-11-15T05:47:45.789Z,975.53
2016-11-15T05:48:54.486Z,975.48
2016-11-15T05:50:03.185Z,975.39
2016-11-15T05:51:11.873Z,975.32
2016-11-15T05:52:20.563Z,975.26
2016-11-15T05:53:29.260Z,975.19
2016-11-15T05:54:37.953Z,975.11
2016-11-15T05:55:46.652Z,975.1
2016-11-15T05:56:55.390Z,975.06
2016-11-15T05:58:04.109Z,975.08
2016-11-15T05:59:12.807Z,975.1
2016-11-15T06:00:21.501Z,975.15
2016-11-15T06:01:30.239Z,975.14
2016-11-15T06:02:38.940Z,975.11
2016-11-15T06:03:47.640Z,975.11
2016-11-15T06:04:56.333Z,975.08
2016-11-15T06:06:05.027Z,974.99
2016-11-15T06:07:13.721Z,974.82
2016-11-15T06:08:22.416Z,974.76
2016-11-15T06:09:31.117Z,974.72
2016-11-15T06:10:39.811Z,974.68
2016-11-15T06:11:48.501Z,974.72
2016-11-15T06:12:57.195Z,974.72
2016-11-15T06:14:05.894Z,974.69
2016-11-15T06:15:14.650Z,974.64
2016-11-15T06:16:23.343Z,974.68
2016-11-15T06:17:32.046Z,974.7
2016-11-15T06:18:40.742Z,974.67
2016-11-15T06:19:49.430Z,974.64
2016-11-15T06:20:58.124Z,974.61
2016-11-15T06:22:06.821Z,974.57
2016-11-15T06:23:15.519Z,974.51
2016-11-15T06:24:24.209Z,974.49
2016-11-15T06:25:32.904Z,974.41
2016-11-15T06:26:41.634Z,974.41
2016-11-15T06:27:50.325Z,974.39
2016-11-15T06:28:59.025Z,974.42
2016-11-15T06:30:07.715Z,974.39
2016-11-15T06:31:16.436Z,974.42
2016-11-15T06:32:25.126Z,974.42
2016-11-15T06:33:33.869Z,974.38
2016-11-15T06:34:42.562Z,974.44
2016-11-15T06:35:51.256Z,974.46
2016-11-15T06:36:59.951Z,974.44
2016-11-15T06:38:08.967Z,974.43
2016-11-15T06:39:17.660Z,974.44
2016-11-15T06:40:26.378Z,974.42
2016-11-15T06:41:35.067Z,974.39
2016-11-15T06:42:43.784Z,974.33
2016-11-15T06:43:52.804Z,974.34
2016-11-15T06:45:01.507Z,974.33
2016-11-15T06:46:10.198Z,974.2
2016-11-15T06:47:18.896Z,974.17
2016-11-15T06:48:27.593Z,974.05
2016-11-15T06:49:36.293Z,974.08
2016-11-15T06:50:44.998Z,974.03
2016-11-15T06:51:53.690Z,974.06
2016-11-15T06:53:02.724Z,974.13
2016-11-15T06:54:11.423Z,974.08
2016-11-15T06:55:20.124Z,974.04
2016-11-15T06:56:28.824Z,973.97
2016-11-15T06:57:37.515Z,973.96
2016-11-15T06:58:46.204Z,973.95
2016-11-15T06:59:54.897Z,973.98
2016-11-15T07:01:03.591Z,973.98
2016-11-15T07:02:12.285Z,973.98
2016-11-15T07:03:20.985Z,973.95
2016-11-15T07:04:29.676Z,973.91
2016-11-15T07:05:38.375Z,973.93
2016-11-15T07:06:47.066Z,973.95
2016-11-15T07:07:55.761Z,974.04
2016-11-15T07:09:04.451Z,974.03
2016-11-15T07:10:13.142Z,974.03
2016-11-15T07:11:21.837Z,973.99
2016-11-15T07:12:30.533Z,973.97
2016-11-15T07:13:39.223Z,973.96
2016-11-15T07:14:47.916Z,973.87
2016-11-15T07:15:56.616Z,973.83
2016-11-15T07:17:05.347Z,973.79
2016-11-15T07:18:14.042Z,973.78
2016-11-15T07:19:22.732Z,973.76
2016-11-15T07:20:31.426Z,973.76
2016-11-15T07:21:40.121Z,973.78
2016-11-15T07:22:48.813Z,973.73
2016-11-15T07:23:57.509Z,973.79
2016-11-15T07:25:06.205Z,973.81
2016-11-15T07:26:14.910Z,973.66
2016-11-15T07:27:23.600Z,973.56
2016-11-15T07:28:32.300Z,973.5
2016-11-15T07:29:41.306Z,973.45
2016-11-15T07:30:50.513Z,973.45
2016-11-15T07:31:59.209Z,973.48
2016-11-15T07:33:08.215Z,973.47
2016-11-15T07:34:16.902Z,973.5
2016-11-15T07:35:25.617Z,973.5
2016-11-15T07:36:34.313Z,973.52
2016-11-15T07:37:43.007Z,973.49
2016-11-15T07:38:51.747Z,973.44
2016-11-15T07:40:00.444Z,973.44
2016-11-15T07:41:09.138Z,973.47
2016-11-15T07:42:17.830Z,973.49
2016-11-15T07:43:26.524Z,973.48
2016-11-15T07:44:35.216Z,973.49
2016-11-15T07:45:44.239Z,973.46
2016-11-15T07:46:53.248Z,973.4
2016-11-15T07:48:01.943Z,973.35
2016-11-15T07:49:10.673Z,973.36
2016-11-15T07:50:19.369Z,973.38
2016-11-15T07:51:28.394Z,973.42
2016-11-15T07:52:37.118Z,973.47
2016-11-15T07:53:45.807Z,973.42
2016-11-15T07:54:54.535Z,973.4
2016-11-15T07:56:03.230Z,973.47
2016-11-15T07:57:11.922Z,973.49
2016-11-15T07:58:20.615Z,973.52
2016-11-15T07:59:29.308Z,973.56
2016-11-15T08:00:38.008Z,973.56
2016-11-15T08:01:46.719Z,973.59
2016-11-15T08:02:55.411Z,973.6
2016-11-15T08:04:04.106Z,973.5
2016-11-15T08:05:12.802Z,973.44
2016-11-15T08:06:21.490Z,973.48
2016-11-15T08:07:30.188Z,973.45
2016-11-15T08:08:38.913Z,973.43
2016-11-15T08:09:47.915Z,973.51
2016-11-15T08:10:56.923Z,973.49
2016-11-15T08:12:05.620Z,973.41
2016-11-15T08:13:14.312Z,973.4
2016-11-15T08:14:23.016Z,973.43
2016-11-15T08:15:31.711Z,973.37
2016-11-15T08:16:40.448Z,973.31
2016-11-15T08:17:49.148Z,973.27
2016-11-15T08:18:57.876Z,973.23
2016-11-15T08:20:06.575Z,973.21
2016-11-15T08:21:15.267Z,973.21
2016-11-15T08:22:23.955Z,973.22
2016-11-15T08:23:32.674Z,973.17
2016-11-15T08:24:41.370Z,973.21
2016-11-15T08:25:50.063Z,973.21
2016-11-15T08:26:58.763Z,973.24
2016-11-15T08:28:07.459Z,973.24
2016-11-15T08:29:16.153Z,973.19
2016-11-15T08:30:24.847Z,973.22
2016-11-15T08:31:33.859Z,973.2
2016-11-15T08:32:42.554Z,973.23
2016-11-15T08:33:51.245Z,973.25
2016-11-15T08:34:59.976Z,973.15
2016-11-15T08:36:08.670Z,973.08
2016-11-15T08:37:17.364Z,973.03
2016-11-15T08:38:26.060Z,973.08
2016-11-15T08:39:34.752Z,973.14
2016-11-15T08:40:43.446Z,973.07
2016-11-15T08:41:52.138Z,972.99
2016-11-15T08:43:01.147Z,972.93
2016-11-15T08:44:09.839Z,972.91
2016-11-15T08:45:18.532Z,972.95
2016-11-15T08:46:27.227Z,972.99
2016-11-15T08:47:35.949Z,972.92
2016-11-15T08:48:44.636Z,972.89
2016-11-15T08:49:53.326Z,972.94
2016-11-15T08:51:02.336Z,972.94
2016-11-15T08:52:11.030Z,972.93
2016-11-15T08:53:19.731Z,972.92
2016-11-15T08:54:28.423Z,972.88
2016-11-15T08:55:37.111Z,972.91
2016-11-15T08:56:45.798Z,972.88
2016-11-15T08:57:54.481Z,972.8
2016-11-15T08:59:03.168Z,972.77
2016-11-15T09:00:11.865Z,972.85
2016-11-15T09:01:20.560Z,972.9
2016-11-15T09:02:29.255Z,972.85
2016-11-15T09:03:37.948Z,972.81
2016-11-15T09:04:46.636Z,972.66
2016-11-15T09:05:55.339Z,972.67
2016-11-15T09:07:04.029Z,972.66
2016-11-15T09:08:12.763Z,972.64
2016-11-15T09:09:21.489Z,972.65
2016-11-15T09:10:30.183Z,972.72
2016-11-15T09:11:38.875Z,972.71
2016-11-15T09:12:47.565Z,972.64
2016-11-15T09:13:56.250Z,972.62
2016-11-15T09:15:04.946Z,972.65
2016-11-15T09:16:13.639Z,972.66
2016-11-15T09:17:22.373Z,972.63
2016-11-15T09:18:31.375Z,972.61
2016-11-15T09:19:40.071Z,972.64
2016-11-15T09:20:48.769Z,972.7
2016-11-15T09:21:57.463Z,972.73
2016-11-15T09:23:06.162Z,972.74
2016-11-15T09:24:14.870Z,972.82
2016-11-15T09:25:23.664Z,972.88
2016-11-15T09:26:32.360Z,972.84
2016-11-15T09:27:41.059Z,972.84
2016-11-15T09:28:49.755Z,972.83
2016-11-15T09:29:58.448Z,972.82
2016-11-15T09:31:07.458Z,972.8
2016-11-15T09:32:16.163Z,972.78
2016-11-15T09:33:24.866Z,972.74
2016-11-15T09:34:33.568Z,972.74
2016-11-15T09:35:42.576Z,972.71
2016-11-15T09:36:51.266Z,972.72
2016-11-15T09:37:59.960Z,972.74
2016-11-15T09:39:08.651Z,972.7
2016-11-15T09:40:17.348Z,972.73
2016-11-15T09:41:26.038Z,972.7
2016-11-15T09:42:35.419Z,972.63
2016-11-15T09:43:44.149Z,972.76
2016-11-15T09:44:52.843Z,972.76
2016-11-15T09:46:01.536Z,972.84
2016-11-15T09:47:10.260Z,972.82
2016-11-15T09:48:19.007Z,972.84
2016-11-15T09:49:27.730Z,972.82
2016-11-15T09:50:36.427Z,972.8
2016-11-15T09:51:45.122Z,972.75
2016-11-15T09:52:53.814Z,972.83
2016-11-15T09:54:02.509Z,972.91
2016-11-15T09:55:11.206Z,972.83
2016-11-15T09:56:19.900Z,972.94
2016-11-15T09:57:28.597Z,972.9
2016-11-15T09:58:37.318Z,973.05
2016-11-15T09:59:46.020Z,973.1
2016-11-15T10:00:54.713Z,972.89
2016-11-15T10:02:03.408Z,972.92
2016-11-15T10:03:12.103Z,972.91
2016-11-15T10:04:20.800Z,973.01
2016-11-15T10:05:29.496Z,973.06
2016-11-15T10:06:38.200Z,972.96
2016-11-15T10:07:46.931Z,973.07
2016-11-15T10:08:55.634Z,973.08
2016-11-15T10:10:04.642Z,973.08
2016-11-15T10:11:13.337Z,973.06
2016-11-15T10:12:22.347Z,973.01
2016-11-15T10:13:31.061Z,973.11
2016-11-15T10:14:39.792Z,973.05
2016-11-15T10:15:48.488Z,973.18
2016-11-15T10:16:57.186Z,973.19
2016-11-15T10:18:06.194Z,973.22
2016-11-15T10:19:14.919Z,973.25
2016-11-15T10:20:23.643Z,973.24
2016-11-15T10:21:32.335Z,973.18
2016-11-15T10:22:41.027Z,973.24
2016-11-15T10:23:49.716Z,973.11
2016-11-15T10:24:58.406Z,973.07
2016-11-15T10:26:07.121Z,973.11
2016-11-15T10:27:15.823Z,973.08
2016-11-15T10:28:24.524Z,973.06
2016-11-15T10:29:33.223Z,973.01
2016-11-15T10:30:41.916Z,973.08
2016-11-15T10:31:50.613Z,973.16
2016-11-15T10:32:59.313Z,973.26
2016-11-15T10:34:08.361Z,973.35
2016-11-15T10:35:17.055Z,973.31
2016-11-15T10:36:25.755Z,973.34
2016-11-15T10:37:34.444Z,973.38
2016-11-15T10:38:43.137Z,973.37
2016-11-15T10:39:51.839Z,973.33
2016-11-15T10:41:00.530Z,973.34
2016-11-15T10:42:09.260Z,973.29
2016-11-15T10:43:17.949Z,973.26
2016-11-15T10:44:26.645Z,973.3
2016-11-15T10:45:35.339Z,973.31
2016-11-15T10:46:44.028Z,973.36
2016-11-15T10:47:52.987Z,973.59
2016-11-15T10:49:01.683Z,973.66
2016-11-15T10:50:10.385Z,973.75
2016-11-15T10:51:19.075Z,973.68
2016-11-15T10:52:27.777Z,973.61
2016-11-15T10:53:36.472Z,973.56
2016-11-15T10:54:45.159Z,973.59
2016-11-15T10:55:53.863Z,973.47
2016-11-15T10:57:02.553Z,973.39
2016-11-15T10:58:11.245Z,973.3
2016-11-15T10:59:19.942Z,973.31
2016-11-15T11:00:28.637Z,973.26
2016-11-15T11:01:37.356Z,973.22
2016-11-15T11:02:46.053Z,973.32
2016-11-15T11:03:54.752Z,973.35
2016-11-15T11:05:03.449Z,973.37
2016-11-15T11:06:12.144Z,973.44
2016-11-15T11:07:20.841Z,973.59
2016-11-15T11:08:29.851Z,973.69
2016-11-15T11:09:38.545Z,973.58
2016-11-15T11:10:47.242Z,973.56
2016-11-15T11:11:55.940Z,973.53
2016-11-15T11:13:04.635Z,973.5
2016-11-15T11:14:13.343Z,973.46
2016-11-15T11:15:22.037Z,973.42
2016-11-15T11:16:30.730Z,973.46
2016-11-15T11:17:39.433Z,973.43
2016-11-15T11:18:48.126Z,973.51
2016-11-15T11:19:56.825Z,973.56
2016-11-15T11:21:05.834Z,973.6
2016-11-15T11:22:14.537Z,973.48
2016-11-15T11:23:23.235Z,973.47
2016-11-15T11:24:31.930Z,973.45
2016-11-15T11:25:40.655Z,973.34
2016-11-15T11:26:49.388Z,973.41
2016-11-15T11:27:58.085Z,973.39
2016-11-15T11:29:06.810Z,973.43
2016-11-15T11:30:15.502Z,973.33
2016-11-15T11:31:24.510Z,973.43
2016-11-15T11:32:33.206Z,973.47
2016-11-15T11:33:41.906Z,973.52
2016-11-15T11:34:50.634Z,973.44
2016-11-15T11:35:59.328Z,973.39
2016-11-15T11:37:08.341Z,973.42
2016-11-15T11:38:17.035Z,973.47
2016-11-15T11:39:25.732Z,973.44
2016-11-15T11:40:34.423Z,973.54
2016-11-15T11:41:43.123Z,973.52
2016-11-15T11:42:51.812Z,973.59
2016-11-15T11:44:00.512Z,973.66
2016-11-15T11:45:09.213Z,973.62
2016-11-15T11:46:17.903Z,973.53
2016-11-15T11:47:26.597Z,973.47
2016-11-15T11:48:35.293Z,973.39
2016-11-15T11:49:43.989Z,973.33
2016-11-15T11:50:52.687Z,973.3
2016-11-15T11:52:01.424Z,973.33
2016-11-15T11:53:10.117Z,973.39
2016-11-15T11:54:18.825Z,973.32
2016-11-15T11:55:27.518Z,973.42
2016-11-15T11:56:36.235Z,973.55
2016-11-15T11:57:44.929Z,973.56
2016-11-15T11:58:53.626Z,973.61
2016-11-15T12:00:02.322Z,973.65
2016-11-15T12:01:11.019Z,973.75
2016-11-15T12:02:19.717Z,973.63
2016-11-15T12:03:28.493Z,973.61
2016-11-15T12:04:37.183Z,973.64
2016-11-15T12:05:45.881Z,973.69
2016-11-15T12:06:54.573Z,973.79
2016-11-15T12:08:03.266Z,973.88
2016-11-15T12:09:11.964Z,973.79
2016-11-15T12:10:20.977Z,973.85
2016-11-15T12:11:29.676Z,973.86
2016-11-15T12:12:38.372Z,973.84
2016-11-15T12:13:47.066Z,973.92
2016-11-15T12:14:55.759Z,973.9
2016-11-15T12:16:04.460Z,973.92
2016-11-15T12:17:13.159Z,973.78
2016-11-15T12:18:21.864Z,973.88
2016-11-15T12:19:30.558Z,973.86
2016-11-15T12:20:52.005Z,973.97
2016-11-15T12:22:00.758Z,973.96
2016-11-15T12:23:09.451Z,974.14
2016-11-15T12:24:18.144Z,974.08
2016-11-15T12:25:26.841Z,974.23
2016-11-15T12:26:35.574Z,974.17
2016-11-15T12:27:44.268Z,974.21
2016-11-15T12:28:52.964Z,974.2
2016-11-15T12:30:01.663Z,974.21
2016-11-15T12:31:10.364Z,974.18
2016-11-15T12:32:19.064Z,974.21
2016-11-15T12:33:27.775Z,974.27
2016-11-15T12:34:36.470Z,974.27
2016-11-15T12:35:45.171Z,974.36
2016-11-15T12:36:53.865Z,974.5
2016-11-15T12:38:02.562Z,974.49
2016-11-15T12:39:11.267Z,974.58
2016-11-15T12:40:19.961Z,974.51
2016-11-15T12:41:31.722Z,974.55
2016-11-15T12:42:40.473Z,974.55
2016-11-15T12:43:49.170Z,974.52
2016-11-15T12:44:57.870Z,974.42
2016-11-15T12:46:06.582Z,974.44
2016-11-15T12:47:15.289Z,974.45
2016-11-15T12:48:23.984Z,974.47
2016-11-15T12:49:32.683Z,974.54
2016-11-15T12:50:41.380Z,974.53
2016-11-15T12:51:50.077Z,974.6
2016-11-15T12:52:58.773Z,974.62
2016-11-15T12:54:20.960Z,974.57
2016-11-15T12:55:42.885Z,974.61
2016-11-15T12:56:51.657Z,974.61
2016-11-15T12:58:00.352Z,974.59
2016-11-15T12:59:09.081Z,974.52
2016-11-15T13:00:18.098Z,974.5
2016-11-15T13:01:26.796Z,974.52
2016-11-15T13:02:35.499Z,974.56
2016-11-15T13:03:44.218Z,974.55
2016-11-15T13:04:52.920Z,974.47
2016-11-15T13:06:01.619Z,974.5
2016-11-15T13:07:10.321Z,974.48
2016-11-15T13:08:19.018Z,974.41
2016-11-15T13:09:27.728Z,974.45
2016-11-15T13:10:36.430Z,974.41
2016-11-15T13:11:45.132Z,974.39
2016-11-15T13:12:53.849Z,974.38
2016-11-15T13:14:02.553Z,974.38
2016-11-15T13:15:11.800Z,974.37
2016-11-15T13:16:20.505Z,974.34
2016-11-15T13:17:29.221Z,974.34
2016-11-15T13:18:38.326Z,974.35
2016-11-15T13:19:47.030Z,974.33
2016-11-15T13:20:55.743Z,974.38
2016-11-15T13:22:04.489Z,974.36
2016-11-15T13:23:13.191Z,974.34
2016-11-15T13:24:21.890Z,974.41
2016-11-15T13:25:30.585Z,974.47
2016-11-15T13:26:39.282Z,974.46
2016-11-15T13:27:47.977Z,974.53
2016-11-15T13:28:56.675Z,974.5
2016-11-15T13:30:05.373Z,974.54
2016-11-15T13:31:14.074Z,974.57
2016-11-15T13:32:22.770Z,974.58
2016-11-15T13:33:31.475Z,974.59
2016-11-15T13:34:40.209Z,974.59
2016-11-15T13:35:48.910Z,974.49
2016-11-15T13:36:57.913Z,974.58
2016-11-15T13:38:06.608Z,974.53
2016-11-15T13:39:15.314Z,974.5
2016-11-15T13:40:24.051Z,974.47
2016-11-15T13:41:32.744Z,974.41
2016-11-15T13:42:41.442Z,974.49
2016-11-15T13:43:50.142Z,974.56
2016-11-15T13:44:58.833Z,974.64
2016-11-15T13:46:07.531Z,974.6
2016-11-15T13:47:16.222Z,974.58
2016-11-15T13:48:25.479Z,974.64
2016-11-15T13:49:34.202Z,974.58
2016-11-15T13:50:42.938Z,974.62
2016-11-15T13:51:51.642Z,974.62
2016-11-15T13:53:00.941Z,974.61
2016-11-15T13:54:09.641Z,974.64
2016-11-15T13:55:18.334Z,974.7
2016-11-15T13:56:27.025Z,974.66
2016-11-15T13:57:35.724Z,974.66
2016-11-15T13:58:44.421Z,974.65
2016-11-15T13:59:53.125Z,974.66
2016-11-15T14:01:02.056Z,974.68
2016-11-15T14:02:11.085Z,974.72
2016-11-15T14:03:19.777Z,974.78
2016-11-15T14:04:28.471Z,974.85
2016-11-15T14:05:37.170Z,974.89
2016-11-15T14:06:45.867Z,974.84
2016-11-15T14:07:54.562Z,974.89
2016-11-15T14:09:03.263Z,974.86
2016-11-15T14:10:11.962Z,974.86
2016-11-15T14:11:20.662Z,974.95
2016-11-15T14:12:29.355Z,974.99
2016-11-15T14:13:38.064Z,974.99
2016-11-15T14:14:46.767Z,975.09
2016-11-15T14:15:55.459Z,975.06
2016-11-15T14:17:04.158Z,975.03
2016-11-15T14:18:12.876Z,975.07
2016-11-15T14:19:21.569Z,975.11
2016-11-15T14:20:30.258Z,975.1